sensor_id;sensor_type;location;lat;lon;timestamp;temperature;humidity
14735;DHT22;7458;49.002;8.472;2022-10-16T00:01:25;16.90;99.90
14735;DHT22;7458;49.002;8.472;2022-10-16T00:03:55;16.90;99.90
14735;DHT22;7458;49.002;8.472;2022-10-16T00:06:24;16.90;99.90
14735;DHT22;7458;49.002;8.472;2022-10-16T00:08:51;16.90;99.90
14735;DHT22;7458;49.002;8.472;2022-10-16T00:11:30;16.90;99.90
14735;DHT22;7458;49.002;8.472;2022-10-16T00:14:07;16.90;99.90
14735;DHT22;7458;49.002;8.472;2022-10-16T00:16:36;16.90;99.90
14735;DHT22;7458;49.002;8.472;2022-10-16T00:19:03;16.90;99.90
14735;DHT22;7458;49.002;8.472;2022-10-16T00:21:30;16.90;99.90
14735;DHT22;7458;49.002;8.472;2022-10-16T00:23:59;16.90;99.90
14735;DHT22;7458;49.002;8.472;2022-10-16T00:26:29;16.90;99.90
14735;DHT22;7458;49.002;8.472;2022-10-16T00:28:56;16.90;99.90
14735;DHT22;7458;49.002;8.472;2022-10-16T00:31:23;16.80;99.90
14735;DHT22;7458;49.002;8.472;2022-10-16T00:33:50;16.80;99.90
14735;DHT22;7458;49.002;8.472;2022-10-16T00:36:19;16.80;99.90
14735;DHT22;7458;49.002;8.472;2022-10-16T00:38:47;16.90;99.90
14735;DHT22;7458;49.002;8.472;2022-10-16T00:41:18;16.90;99.90
14735;DHT22;7458;49.002;8.472;2022-10-16T00:43:50;16.80;99.90
14735;DHT22;7458;49.002;8.472;2022-10-16T00:49:17;16.80;99.90
14735;DHT22;7458;49.002;8.472;2022-10-16T00:51:48;16.80;99.90
14735;DHT22;7458;49.002;8.472;2022-10-16T00:54:19;16.80;99.90
14735;DHT22;7458;49.002;8.472;2022-10-16T00:56:48;16.90;99.90
14735;DHT22;7458;49.002;8.472;2022-10-16T00:59:22;16.90;99.90
14735;DHT22;7458;49.002;8.472;2022-10-16T01:01:51;16.90;99.90
14735;DHT22;7458;49.002;8.472;2022-10-16T01:04:18;16.90;99.90
14735;DHT22;7458;49.002;8.472;2022-10-16T01:07:00;16.90;99.90
14735;DHT22;7458;49.002;8.472;2022-10-16T01:13:00;16.90;99.90
14735;DHT22;7458;49.002;8.472;2022-10-16T01:15:35;16.90;99.90
14735;DHT22;7458;49.002;8.472;2022-10-16T01:18:18;16.90;99.90
14735;DHT22;7458;49.002;8.472;2022-10-16T01:21:05;16.80;99.90
14735;DHT22;7458;49.002;8.472;2022-10-16T01:32:56;16.90;99.90
14735;DHT22;7458;49.002;8.472;2022-10-16T01:35:38;16.80;99.90
14735;DHT22;7458;49.002;8.472;2022-10-16T01:40:58;16.80;99.90
14735;DHT22;7458;49.002;8.472;2022-10-16T01:43:37;16.80;99.90
14735;DHT22;7458;49.002;8.472;2022-10-16T01:46:07;16.80;99.90
14735;DHT22;7458;49.002;8.472;2022-10-16T01:48:35;16.80;99.90
14735;DHT22;7458;49.002;8.472;2022-10-16T01:51:14;16.80;99.90
14735;DHT22;7458;49.002;8.472;2022-10-16T01:53:44;16.90;99.90
14735;DHT22;7458;49.002;8.472;2022-10-16T01:56:15;16.80;99.90
14735;DHT22;7458;49.002;8.472;2022-10-16T01:58:51;16.80;99.90
14735;DHT22;7458;49.002;8.472;2022-10-16T02:01:22;16.80;99.90
14735;DHT22;7458;49.002;8.472;2022-10-16T02:03:52;16.70;99.90
14735;DHT22;7458;49.002;8.472;2022-10-16T02:06:22;16.70;99.90
14735;DHT22;7458;49.002;8.472;2022-10-16T02:08:48;16.80;99.90
14735;DHT22;7458;49.002;8.472;2022-10-16T02:11:14;16.70;99.90
14735;DHT22;7458;49.002;8.472;2022-10-16T02:13:58;16.70;99.90
14735;DHT22;7458;49.002;8.472;2022-10-16T02:16:37;16.70;99.90
14735;DHT22;7458;49.002;8.472;2022-10-16T02:19:08;16.70;99.90
14735;DHT22;7458;49.002;8.472;2022-10-16T02:21:44;16.70;99.90
14735;DHT22;7458;49.002;8.472;2022-10-16T02:29:53;16.70;99.90
14735;DHT22;7458;49.002;8.472;2022-10-16T02:32:29;16.60;99.90
14735;DHT22;7458;49.002;8.472;2022-10-16T02:34:58;16.60;99.90
14735;DHT22;7458;49.002;8.472;2022-10-16T02:37:25;16.60;99.90
14735;DHT22;7458;49.002;8.472;2022-10-16T02:39:53;16.60;99.90
14735;DHT22;7458;49.002;8.472;2022-10-16T02:42:20;16.60;99.90
14735;DHT22;7458;49.002;8.472;2022-10-16T02:44:46;16.60;99.90
14735;DHT22;7458;49.002;8.472;2022-10-16T02:47:11;16.60;99.90
14735;DHT22;7458;49.002;8.472;2022-10-16T02:49:37;16.50;99.90
14735;DHT22;7458;49.002;8.472;2022-10-16T02:52:03;16.50;99.90
14735;DHT22;7458;49.002;8.472;2022-10-16T02:54:29;16.40;99.90
14735;DHT22;7458;49.002;8.472;2022-10-16T02:56:55;16.40;99.90
14735;DHT22;7458;49.002;8.472;2022-10-16T02:59:20;16.40;99.90
14735;DHT22;7458;49.002;8.472;2022-10-16T03:01:46;16.50;99.90
14735;DHT22;7458;49.002;8.472;2022-10-16T03:04:12;16.50;99.90
14735;DHT22;7458;49.002;8.472;2022-10-16T03:06:37;16.50;99.90
14735;DHT22;7458;49.002;8.472;2022-10-16T03:09:03;16.50;99.90
14735;DHT22;7458;49.002;8.472;2022-10-16T03:11:29;16.50;99.90
14735;DHT22;7458;49.002;8.472;2022-10-16T03:13:54;16.50;99.90
14735;DHT22;7458;49.002;8.472;2022-10-16T03:16:20;16.50;99.90
14735;DHT22;7458;49.002;8.472;2022-10-16T03:18:49;16.50;99.90
14735;DHT22;7458;49.002;8.472;2022-10-16T03:21:15;16.50;99.90
14735;DHT22;7458;49.002;8.472;2022-10-16T03:23:42;16.40;99.90
14735;DHT22;7458;49.002;8.472;2022-10-16T03:26:07;16.40;99.90
14735;DHT22;7458;49.002;8.472;2022-10-16T03:28:33;16.40;99.90
14735;DHT22;7458;49.002;8.472;2022-10-16T03:30:59;16.40;99.90
14735;DHT22;7458;49.002;8.472;2022-10-16T03:33:25;16.40;99.90
14735;DHT22;7458;49.002;8.472;2022-10-16T03:35:52;16.40;99.90
14735;DHT22;7458;49.002;8.472;2022-10-16T03:38:19;16.50;99.90
14735;DHT22;7458;49.002;8.472;2022-10-16T03:40:45;16.40;99.90
14735;DHT22;7458;49.002;8.472;2022-10-16T03:43:11;16.40;99.90
14735;DHT22;7458;49.002;8.472;2022-10-16T03:45:37;16.40;99.90
14735;DHT22;7458;49.002;8.472;2022-10-16T03:48:03;16.40;99.90
14735;DHT22;7458;49.002;8.472;2022-10-16T03:50:29;16.40;99.90
14735;DHT22;7458;49.002;8.472;2022-10-16T03:52:55;16.40;99.90
14735;DHT22;7458;49.002;8.472;2022-10-16T03:55:21;16.40;99.90
14735;DHT22;7458;49.002;8.472;2022-10-16T03:57:47;16.40;99.90
14735;DHT22;7458;49.002;8.472;2022-10-16T04:00:13;16.30;99.90
14735;DHT22;7458;49.002;8.472;2022-10-16T04:02:39;16.30;99.90
14735;DHT22;7458;49.002;8.472;2022-10-16T04:05:05;16.30;99.90
14735;DHT22;7458;49.002;8.472;2022-10-16T04:07:31;16.20;99.90
14735;DHT22;7458;49.002;8.472;2022-10-16T04:09:57;16.30;99.90
14735;DHT22;7458;49.002;8.472;2022-10-16T04:12:24;16.30;99.90
14735;DHT22;7458;49.002;8.472;2022-10-16T04:14:50;16.30;99.90
14735;DHT22;7458;49.002;8.472;2022-10-16T04:17:16;16.30;99.90
14735;DHT22;7458;49.002;8.472;2022-10-16T04:19:42;16.40;99.90
14735;DHT22;7458;49.002;8.472;2022-10-16T04:22:08;16.40;99.90
14735;DHT22;7458;49.002;8.472;2022-10-16T04:24:33;16.30;99.90
14735;DHT22;7458;49.002;8.472;2022-10-16T04:26:59;16.30;99.90
14735;DHT22;7458;49.002;8.472;2022-10-16T04:29:25;16.30;99.90
14735;DHT22;7458;49.002;8.472;2022-10-16T04:31:51;16.30;99.90
14735;DHT22;7458;49.002;8.472;2022-10-16T04:34:16;16.30;99.90
14735;DHT22;7458;49.002;8.472;2022-10-16T04:36:42;16.30;99.90
14735;DHT22;7458;49.002;8.472;2022-10-16T04:39:08;16.30;99.90
14735;DHT22;7458;49.002;8.472;2022-10-16T04:41:33;16.40;99.90
14735;DHT22;7458;49.002;8.472;2022-10-16T04:43:59;16.40;99.90
14735;DHT22;7458;49.002;8.472;2022-10-16T04:46:25;16.40;99.90
14735;DHT22;7458;49.002;8.472;2022-10-16T04:48:51;16.40;99.90
14735;DHT22;7458;49.002;8.472;2022-10-16T04:51:16;16.40;99.90
14735;DHT22;7458;49.002;8.472;2022-10-16T04:53:43;16.40;99.90
14735;DHT22;7458;49.002;8.472;2022-10-16T04:56:09;16.40;99.90
14735;DHT22;7458;49.002;8.472;2022-10-16T04:58:35;16.40;99.90
14735;DHT22;7458;49.002;8.472;2022-10-16T05:01:01;16.30;99.90
14735;DHT22;7458;49.002;8.472;2022-10-16T05:03:27;16.40;99.90
14735;DHT22;7458;49.002;8.472;2022-10-16T05:05:52;16.30;99.90
14735;DHT22;7458;49.002;8.472;2022-10-16T05:08:18;16.40;99.90
14735;DHT22;7458;49.002;8.472;2022-10-16T05:10:44;16.30;99.90
14735;DHT22;7458;49.002;8.472;2022-10-16T05:13:10;16.30;99.90
14735;DHT22;7458;49.002;8.472;2022-10-16T05:15:36;16.30;99.90
14735;DHT22;7458;49.002;8.472;2022-10-16T05:18:02;16.30;99.90
14735;DHT22;7458;49.002;8.472;2022-10-16T05:20:28;16.30;99.90
14735;DHT22;7458;49.002;8.472;2022-10-16T05:22:54;16.30;99.90
14735;DHT22;7458;49.002;8.472;2022-10-16T05:25:20;16.40;99.90
14735;DHT22;7458;49.002;8.472;2022-10-16T05:27:49;16.30;99.90
14735;DHT22;7458;49.002;8.472;2022-10-16T05:30:16;16.40;99.90
14735;DHT22;7458;49.002;8.472;2022-10-16T05:32:49;16.30;99.90
14735;DHT22;7458;49.002;8.472;2022-10-16T05:35:17;16.30;99.90
14735;DHT22;7458;49.002;8.472;2022-10-16T05:37:43;16.30;99.90
14735;DHT22;7458;49.002;8.472;2022-10-16T05:40:10;16.30;99.90
14735;DHT22;7458;49.002;8.472;2022-10-16T05:42:37;16.40;99.90
14735;DHT22;7458;49.002;8.472;2022-10-16T05:45:04;16.40;99.90
14735;DHT22;7458;49.002;8.472;2022-10-16T05:47:31;16.40;99.90
14735;DHT22;7458;49.002;8.472;2022-10-16T05:49:57;16.40;99.90
14735;DHT22;7458;49.002;8.472;2022-10-16T05:52:23;16.50;99.90
14735;DHT22;7458;49.002;8.472;2022-10-16T05:54:48;16.50;99.90
14735;DHT22;7458;49.002;8.472;2022-10-16T05:57:15;16.50;99.90
14735;DHT22;7458;49.002;8.472;2022-10-16T05:59:40;16.40;99.90
14735;DHT22;7458;49.002;8.472;2022-10-16T06:02:11;16.40;99.90
14735;DHT22;7458;49.002;8.472;2022-10-16T06:04:38;16.40;99.90
14735;DHT22;7458;49.002;8.472;2022-10-16T06:07:04;16.40;99.90
14735;DHT22;7458;49.002;8.472;2022-10-16T06:09:30;16.50;99.90
14735;DHT22;7458;49.002;8.472;2022-10-16T06:11:55;16.40;99.90
14735;DHT22;7458;49.002;8.472;2022-10-16T06:14:21;16.40;99.90
14735;DHT22;7458;49.002;8.472;2022-10-16T06:16:47;16.50;99.90
14735;DHT22;7458;49.002;8.472;2022-10-16T06:19:12;16.50;99.90
14735;DHT22;7458;49.002;8.472;2022-10-16T06:21:38;16.50;99.90
14735;DHT22;7458;49.002;8.472;2022-10-16T06:24:04;16.50;99.90
14735;DHT22;7458;49.002;8.472;2022-10-16T06:26:31;16.50;99.90
14735;DHT22;7458;49.002;8.472;2022-10-16T06:28:58;16.50;99.90
14735;DHT22;7458;49.002;8.472;2022-10-16T06:31:25;16.50;99.90
14735;DHT22;7458;49.002;8.472;2022-10-16T06:33:54;16.50;99.90
14735;DHT22;7458;49.002;8.472;2022-10-16T06:36:21;16.60;99.90
14735;DHT22;7458;49.002;8.472;2022-10-16T06:38:48;16.60;99.90
14735;DHT22;7458;49.002;8.472;2022-10-16T06:41:15;16.60;99.90
14735;DHT22;7458;49.002;8.472;2022-10-16T06:43:43;16.60;99.90
14735;DHT22;7458;49.002;8.472;2022-10-16T06:46:14;16.60;99.90
14735;DHT22;7458;49.002;8.472;2022-10-16T06:48:42;16.60;99.90
14735;DHT22;7458;49.002;8.472;2022-10-16T06:51:11;16.70;99.90
14735;DHT22;7458;49.002;8.472;2022-10-16T06:53:41;16.70;99.90
14735;DHT22;7458;49.002;8.472;2022-10-16T06:56:23;16.70;99.90
14735;DHT22;7458;49.002;8.472;2022-10-16T06:58:53;16.80;99.90
14735;DHT22;7458;49.002;8.472;2022-10-16T07:01:22;16.80;99.90
14735;DHT22;7458;49.002;8.472;2022-10-16T07:03:50;16.80;99.90
14735;DHT22;7458;49.002;8.472;2022-10-16T07:06:18;16.80;99.90
14735;DHT22;7458;49.002;8.472;2022-10-16T07:08:47;16.90;99.90
14735;DHT22;7458;49.002;8.472;2022-10-16T07:11:19;16.90;99.90
14735;DHT22;7458;49.002;8.472;2022-10-16T07:14:20;16.90;99.90
14735;DHT22;7458;49.002;8.472;2022-10-16T07:16:49;17.00;99.90
14735;DHT22;7458;49.002;8.472;2022-10-16T07:19:15;17.20;99.90
14735;DHT22;7458;49.002;8.472;2022-10-16T07:21:43;17.30;99.90
14735;DHT22;7458;49.002;8.472;2022-10-16T07:24:15;17.40;99.90
14735;DHT22;7458;49.002;8.472;2022-10-16T07:26:43;17.50;99.90
14735;DHT22;7458;49.002;8.472;2022-10-16T07:29:15;17.50;99.90
14735;DHT22;7458;49.002;8.472;2022-10-16T07:31:48;17.50;99.90
14735;DHT22;7458;49.002;8.472;2022-10-16T07:34:17;17.70;99.90
14735;DHT22;7458;49.002;8.472;2022-10-16T07:36:46;18.40;99.90
14735;DHT22;7458;49.002;8.472;2022-10-16T07:39:13;18.40;99.90
14735;DHT22;7458;49.002;8.472;2022-10-16T07:41:38;18.20;99.90
14735;DHT22;7458;49.002;8.472;2022-10-16T07:44:04;18.10;99.90
14735;DHT22;7458;49.002;8.472;2022-10-16T07:46:31;18.10;99.90
14735;DHT22;7458;49.002;8.472;2022-10-16T07:48:59;18.10;99.90
14735;DHT22;7458;49.002;8.472;2022-10-16T07:51:25;18.00;99.90
14735;DHT22;7458;49.002;8.472;2022-10-16T07:53:52;17.90;99.90
14735;DHT22;7458;49.002;8.472;2022-10-16T07:56:19;18.00;99.90
14735;DHT22;7458;49.002;8.472;2022-10-16T07:58:45;18.00;99.90
14735;DHT22;7458;49.002;8.472;2022-10-16T08:01:13;18.00;99.90
14735;DHT22;7458;49.002;8.472;2022-10-16T08:03:45;18.00;99.90
14735;DHT22;7458;49.002;8.472;2022-10-16T08:06:13;18.10;99.90
14735;DHT22;7458;49.002;8.472;2022-10-16T08:08:39;18.10;99.90
14735;DHT22;7458;49.002;8.472;2022-10-16T08:11:05;18.10;99.90
14735;DHT22;7458;49.002;8.472;2022-10-16T08:13:31;18.10;99.90
14735;DHT22;7458;49.002;8.472;2022-10-16T08:15:57;18.10;99.90
14735;DHT22;7458;49.002;8.472;2022-10-16T08:18:23;18.20;99.90
14735;DHT22;7458;49.002;8.472;2022-10-16T08:20:58;18.30;99.90
14735;DHT22;7458;49.002;8.472;2022-10-16T08:23:25;18.50;99.90
14735;DHT22;7458;49.002;8.472;2022-10-16T08:25:55;18.50;99.90
14735;DHT22;7458;49.002;8.472;2022-10-16T08:28:26;18.60;99.90
14735;DHT22;7458;49.002;8.472;2022-10-16T08:30:52;18.60;99.90
14735;DHT22;7458;49.002;8.472;2022-10-16T08:33:18;18.60;99.90
14735;DHT22;7458;49.002;8.472;2022-10-16T08:35:51;18.70;99.90
14735;DHT22;7458;49.002;8.472;2022-10-16T08:38:18;18.70;99.90
14735;DHT22;7458;49.002;8.472;2022-10-16T08:40:44;18.70;99.90
14735;DHT22;7458;49.002;8.472;2022-10-16T08:48:54;19.00;99.90
14735;DHT22;7458;49.002;8.472;2022-10-16T08:51:24;19.00;99.90
14735;DHT22;7458;49.002;8.472;2022-10-16T08:54:06;19.00;99.90
14735;DHT22;7458;49.002;8.472;2022-10-16T08:56:50;19.10;99.90
14735;DHT22;7458;49.002;8.472;2022-10-16T08:59:16;19.20;99.90
14735;DHT22;7458;49.002;8.472;2022-10-16T09:01:48;19.30;99.90
14735;DHT22;7458;49.002;8.472;2022-10-16T09:14:16;20.10;99.90
14735;DHT22;7458;49.002;8.472;2022-10-16T09:17:27;20.20;99.90
14735;DHT22;7458;49.002;8.472;2022-10-16T09:20:00;20.20;99.90
14735;DHT22;7458;49.002;8.472;2022-10-16T09:22:29;20.20;99.90
14735;DHT22;7458;49.002;8.472;2022-10-16T09:25:00;20.10;99.90
14735;DHT22;7458;49.002;8.472;2022-10-16T09:27:36;20.10;99.90
14735;DHT22;7458;49.002;8.472;2022-10-16T09:30:17;20.10;99.90
14735;DHT22;7458;49.002;8.472;2022-10-16T09:32:46;20.10;99.90
14735;DHT22;7458;49.002;8.472;2022-10-16T09:35:20;20.00;99.90
14735;DHT22;7458;49.002;8.472;2022-10-16T09:37:52;20.00;99.90
14735;DHT22;7458;49.002;8.472;2022-10-16T09:40:29;19.90;99.90
14735;DHT22;7458;49.002;8.472;2022-10-16T09:43:19;19.90;99.90
14735;DHT22;7458;49.002;8.472;2022-10-16T09:46:01;19.90;99.90
14735;DHT22;7458;49.002;8.472;2022-10-16T09:48:53;20.00;99.90
14735;DHT22;7458;49.002;8.472;2022-10-16T09:54:00;20.40;99.90
14735;DHT22;7458;49.002;8.472;2022-10-16T09:56:33;20.60;99.90
14735;DHT22;7458;49.002;8.472;2022-10-16T09:59:17;20.70;99.90
14735;DHT22;7458;49.002;8.472;2022-10-16T10:04:18;20.90;99.90
14735;DHT22;7458;49.002;8.472;2022-10-16T10:06:56;21.00;99.90
14735;DHT22;7458;49.002;8.472;2022-10-16T10:09:32;20.90;99.90
14735;DHT22;7458;49.002;8.472;2022-10-16T10:12:05;21.00;99.90
14735;DHT22;7458;49.002;8.472;2022-10-16T10:14:56;21.00;99.90
14735;DHT22;7458;49.002;8.472;2022-10-16T10:17:27;20.90;99.90
14735;DHT22;7458;49.002;8.472;2022-10-16T10:19:56;21.00;99.90
14735;DHT22;7458;49.002;8.472;2022-10-16T10:22:42;20.90;99.90
14735;DHT22;7458;49.002;8.472;2022-10-16T10:33:39;21.30;99.90
14735;DHT22;7458;49.002;8.472;2022-10-16T10:42:08;22.80;99.90
14735;DHT22;7458;49.002;8.472;2022-10-16T10:45:12;23.10;99.90
14735;DHT22;7458;49.002;8.472;2022-10-16T10:48:06;23.30;99.90
14735;DHT22;7458;49.002;8.472;2022-10-16T10:50:52;23.20;99.90
14735;DHT22;7458;49.002;8.472;2022-10-16T10:53:50;23.40;99.90
14735;DHT22;7458;49.002;8.472;2022-10-16T11:03:29;22.70;99.90
14735;DHT22;7458;49.002;8.472;2022-10-16T11:05:39;22.60;99.90
14735;DHT22;7458;49.002;8.472;2022-10-16T11:08:20;22.50;99.90
14735;DHT22;7458;49.002;8.472;2022-10-16T11:11:10;22.50;99.90
14735;DHT22;7458;49.002;8.472;2022-10-16T11:13:58;22.50;99.90
14735;DHT22;7458;49.002;8.472;2022-10-16T11:16:31;22.50;99.90
14735;DHT22;7458;49.002;8.472;2022-10-16T11:22:08;22.70;99.90
14735;DHT22;7458;49.002;8.472;2022-10-16T11:28:19;22.70;99.90
14735;DHT22;7458;49.002;8.472;2022-10-16T11:30:53;22.70;99.90
14735;DHT22;7458;49.002;8.472;2022-10-16T11:33:41;22.80;99.90
14735;DHT22;7458;49.002;8.472;2022-10-16T11:36:42;22.90;99.90
14735;DHT22;7458;49.002;8.472;2022-10-16T11:39:28;23.20;99.90
14735;DHT22;7458;49.002;8.472;2022-10-16T11:42:23;23.30;99.90
14735;DHT22;7458;49.002;8.472;2022-10-16T11:45:27;23.40;99.90
14735;DHT22;7458;49.002;8.472;2022-10-16T11:48:28;23.40;99.90
14735;DHT22;7458;49.002;8.472;2022-10-16T11:56:57;23.30;99.90
14735;DHT22;7458;49.002;8.472;2022-10-16T11:59:42;23.30;99.90
14735;DHT22;7458;49.002;8.472;2022-10-16T12:05:30;23.40;99.90
14735;DHT22;7458;49.002;8.472;2022-10-16T12:08:14;23.30;99.90
14735;DHT22;7458;49.002;8.472;2022-10-16T12:10:44;23.40;99.90
14735;DHT22;7458;49.002;8.472;2022-10-16T12:13:35;23.40;99.90
14735;DHT22;7458;49.002;8.472;2022-10-16T12:18:38;23.40;99.90
14735;DHT22;7458;49.002;8.472;2022-10-16T12:21:10;23.40;99.90
14735;DHT22;7458;49.002;8.472;2022-10-16T12:23:54;23.30;99.90
14735;DHT22;7458;49.002;8.472;2022-10-16T12:26:34;23.30;99.90
14735;DHT22;7458;49.002;8.472;2022-10-16T12:29:28;23.30;99.90
14735;DHT22;7458;49.002;8.472;2022-10-16T12:31:55;23.20;99.90
14735;DHT22;7458;49.002;8.472;2022-10-16T12:34:39;23.20;99.90
14735;DHT22;7458;49.002;8.472;2022-10-16T12:37:24;23.20;99.90
14735;DHT22;7458;49.002;8.472;2022-10-16T12:39:54;23.20;99.90
14735;DHT22;7458;49.002;8.472;2022-10-16T12:44:54;23.10;99.90
14735;DHT22;7458;49.002;8.472;2022-10-16T12:47:34;23.10;99.90
14735;DHT22;7458;49.002;8.472;2022-10-16T12:50:22;23.10;99.90
14735;DHT22;7458;49.002;8.472;2022-10-16T12:52:50;23.10;99.90
14735;DHT22;7458;49.002;8.472;2022-10-16T12:55:18;23.10;99.90
14735;DHT22;7458;49.002;8.472;2022-10-16T12:58:18;23.20;99.90
14735;DHT22;7458;49.002;8.472;2022-10-16T13:08:05;23.20;99.90
14735;DHT22;7458;49.002;8.472;2022-10-16T13:22:37;22.90;99.90
14735;DHT22;7458;49.002;8.472;2022-10-16T13:27:56;22.80;99.90
14735;DHT22;7458;49.002;8.472;2022-10-16T13:30:28;22.80;99.90
14735;DHT22;7458;49.002;8.472;2022-10-16T13:33:04;22.90;99.90
14735;DHT22;7458;49.002;8.472;2022-10-16T13:35:35;22.90;99.90
14735;DHT22;7458;49.002;8.472;2022-10-16T13:38:05;22.90;99.90
14735;DHT22;7458;49.002;8.472;2022-10-16T13:40:34;23.00;99.90
14735;DHT22;7458;49.002;8.472;2022-10-16T13:43:00;23.00;99.90
14735;DHT22;7458;49.002;8.472;2022-10-16T13:45:26;22.90;99.90
14735;DHT22;7458;49.002;8.472;2022-10-16T13:48:05;22.90;99.90
14735;DHT22;7458;49.002;8.472;2022-10-16T13:50:35;22.80;99.90
14735;DHT22;7458;49.002;8.472;2022-10-16T13:53:13;22.70;99.90
14735;DHT22;7458;49.002;8.472;2022-10-16T13:55:40;22.70;99.90
14735;DHT22;7458;49.002;8.472;2022-10-16T13:58:12;22.70;99.90
14735;DHT22;7458;49.002;8.472;2022-10-16T14:00:41;22.70;99.90
14735;DHT22;7458;49.002;8.472;2022-10-16T14:03:21;22.60;99.90
14735;DHT22;7458;49.002;8.472;2022-10-16T14:05:56;22.60;99.90
14735;DHT22;7458;49.002;8.472;2022-10-16T14:08:27;22.60;99.90
14735;DHT22;7458;49.002;8.472;2022-10-16T14:10:57;22.60;99.90
14735;DHT22;7458;49.002;8.472;2022-10-16T14:13:37;22.60;99.90
14735;DHT22;7458;49.002;8.472;2022-10-16T14:16:10;22.50;99.90
14735;DHT22;7458;49.002;8.472;2022-10-16T14:18:46;22.50;99.90
14735;DHT22;7458;49.002;8.472;2022-10-16T14:21:37;22.40;99.90
14735;DHT22;7458;49.002;8.472;2022-10-16T14:24:46;22.40;99.90
14735;DHT22;7458;49.002;8.472;2022-10-16T14:27:31;22.40;99.90
14735;DHT22;7458;49.002;8.472;2022-10-16T14:30:20;22.40;99.90
14735;DHT22;7458;49.002;8.472;2022-10-16T14:32:58;22.60;99.90
14735;DHT22;7458;49.002;8.472;2022-10-16T14:35:34;22.70;99.90
14735;DHT22;7458;49.002;8.472;2022-10-16T14:38:03;22.70;99.90
14735;DHT22;7458;49.002;8.472;2022-10-16T14:40:33;22.80;99.90
14735;DHT22;7458;49.002;8.472;2022-10-16T14:43:02;22.80;99.90
14735;DHT22;7458;49.002;8.472;2022-10-16T14:45:33;22.70;99.90
14735;DHT22;7458;49.002;8.472;2022-10-16T14:48:03;22.70;99.90
14735;DHT22;7458;49.002;8.472;2022-10-16T14:50:40;22.70;99.90
14735;DHT22;7458;49.002;8.472;2022-10-16T14:53:11;22.70;99.90
14735;DHT22;7458;49.002;8.472;2022-10-16T14:55:38;22.70;99.90
14735;DHT22;7458;49.002;8.472;2022-10-16T14:58:08;22.80;99.90
14735;DHT22;7458;49.002;8.472;2022-10-16T15:00:43;22.80;99.90
14735;DHT22;7458;49.002;8.472;2022-10-16T15:03:08;22.80;99.90
14735;DHT22;7458;49.002;8.472;2022-10-16T15:05:34;22.70;99.90
14735;DHT22;7458;49.002;8.472;2022-10-16T15:08:00;22.70;99.90
14735;DHT22;7458;49.002;8.472;2022-10-16T15:10:28;22.60;99.90
14735;DHT22;7458;49.002;8.472;2022-10-16T15:12:55;22.50;99.90
14735;DHT22;7458;49.002;8.472;2022-10-16T15:15:30;22.50;99.90
14735;DHT22;7458;49.002;8.472;2022-10-16T15:17:56;22.40;99.90
14735;DHT22;7458;49.002;8.472;2022-10-16T15:20:24;22.40;99.90
14735;DHT22;7458;49.002;8.472;2022-10-16T15:22:50;22.30;99.90
14735;DHT22;7458;49.002;8.472;2022-10-16T15:25:30;22.30;99.90
14735;DHT22;7458;49.002;8.472;2022-10-16T15:28:07;22.30;99.90
14735;DHT22;7458;49.002;8.472;2022-10-16T15:30:35;22.30;99.90
14735;DHT22;7458;49.002;8.472;2022-10-16T15:33:03;22.30;99.90
14735;DHT22;7458;49.002;8.472;2022-10-16T15:35:29;22.20;99.90
14735;DHT22;7458;49.002;8.472;2022-10-16T15:37:57;22.20;99.90
14735;DHT22;7458;49.002;8.472;2022-10-16T15:40:23;22.20;99.90
14735;DHT22;7458;49.002;8.472;2022-10-16T15:42:49;22.10;99.90
14735;DHT22;7458;49.002;8.472;2022-10-16T15:45:15;22.10;99.90
14735;DHT22;7458;49.002;8.472;2022-10-16T15:47:42;22.00;99.90
14735;DHT22;7458;49.002;8.472;2022-10-16T15:50:11;22.00;99.90
14735;DHT22;7458;49.002;8.472;2022-10-16T15:52:38;22.00;99.90
14735;DHT22;7458;49.002;8.472;2022-10-16T15:55:08;22.00;99.90
14735;DHT22;7458;49.002;8.472;2022-10-16T15:57:36;21.90;99.90
14735;DHT22;7458;49.002;8.472;2022-10-16T16:00:12;21.90;99.90
14735;DHT22;7458;49.002;8.472;2022-10-16T16:02:41;21.90;99.90
14735;DHT22;7458;49.002;8.472;2022-10-16T16:05:09;21.90;99.90
14735;DHT22;7458;49.002;8.472;2022-10-16T16:07:37;21.80;99.90
14735;DHT22;7458;49.002;8.472;2022-10-16T16:10:05;21.80;99.90
14735;DHT22;7458;49.002;8.472;2022-10-16T16:12:33;21.80;99.90
14735;DHT22;7458;49.002;8.472;2022-10-16T16:15:00;21.70;99.90
14735;DHT22;7458;49.002;8.472;2022-10-16T16:17:26;21.70;99.90
14735;DHT22;7458;49.002;8.472;2022-10-16T16:19:51;21.60;99.90
14735;DHT22;7458;49.002;8.472;2022-10-16T16:22:17;21.50;99.90
14735;DHT22;7458;49.002;8.472;2022-10-16T16:24:43;21.50;99.90
14735;DHT22;7458;49.002;8.472;2022-10-16T16:27:09;21.40;99.90
14735;DHT22;7458;49.002;8.472;2022-10-16T16:29:35;21.30;99.90
14735;DHT22;7458;49.002;8.472;2022-10-16T16:32:01;21.20;99.90
14735;DHT22;7458;49.002;8.472;2022-10-16T16:34:27;21.20;99.90
14735;DHT22;7458;49.002;8.472;2022-10-16T16:36:55;21.10;99.90
14735;DHT22;7458;49.002;8.472;2022-10-16T16:39:22;21.00;99.90
14735;DHT22;7458;49.002;8.472;2022-10-16T16:41:48;21.00;99.90
14735;DHT22;7458;49.002;8.472;2022-10-16T16:44:15;20.90;99.90
14735;DHT22;7458;49.002;8.472;2022-10-16T16:46:42;20.90;99.90
14735;DHT22;7458;49.002;8.472;2022-10-16T16:49:13;20.80;99.90
14735;DHT22;7458;49.002;8.472;2022-10-16T16:51:40;20.70;99.90
14735;DHT22;7458;49.002;8.472;2022-10-16T16:54:07;20.70;99.90
14735;DHT22;7458;49.002;8.472;2022-10-16T16:56:34;20.60;99.90
14735;DHT22;7458;49.002;8.472;2022-10-16T16:59:00;20.60;99.90
14735;DHT22;7458;49.002;8.472;2022-10-16T17:01:27;20.50;99.90
14735;DHT22;7458;49.002;8.472;2022-10-16T17:03:55;20.50;99.90
14735;DHT22;7458;49.002;8.472;2022-10-16T17:06:26;20.40;99.90
14735;DHT22;7458;49.002;8.472;2022-10-16T17:08:55;20.40;99.90
14735;DHT22;7458;49.002;8.472;2022-10-16T17:11:23;20.30;99.90
14735;DHT22;7458;49.002;8.472;2022-10-16T17:13:52;20.30;99.90
14735;DHT22;7458;49.002;8.472;2022-10-16T17:16:21;20.20;99.90
14735;DHT22;7458;49.002;8.472;2022-10-16T17:18:47;20.20;99.90
14735;DHT22;7458;49.002;8.472;2022-10-16T17:21:13;20.20;99.90
14735;DHT22;7458;49.002;8.472;2022-10-16T17:23:39;20.10;99.90
14735;DHT22;7458;49.002;8.472;2022-10-16T17:26:11;20.10;99.90
14735;DHT22;7458;49.002;8.472;2022-10-16T17:28:39;20.00;99.90
14735;DHT22;7458;49.002;8.472;2022-10-16T17:31:17;20.00;99.90
14735;DHT22;7458;49.002;8.472;2022-10-16T17:33:46;19.90;99.90
14735;DHT22;7458;49.002;8.472;2022-10-16T17:36:12;19.90;99.90
14735;DHT22;7458;49.002;8.472;2022-10-16T17:38:41;19.80;99.90
14735;DHT22;7458;49.002;8.472;2022-10-16T17:41:12;19.90;99.90
14735;DHT22;7458;49.002;8.472;2022-10-16T17:43:39;19.90;99.90
14735;DHT22;7458;49.002;8.472;2022-10-16T17:46:06;19.80;99.90
14735;DHT22;7458;49.002;8.472;2022-10-16T17:48:45;19.80;99.90
14735;DHT22;7458;49.002;8.472;2022-10-16T17:51:15;19.80;99.90
14735;DHT22;7458;49.002;8.472;2022-10-16T17:53:42;19.60;99.90
14735;DHT22;7458;49.002;8.472;2022-10-16T17:56:12;19.50;99.90
14735;DHT22;7458;49.002;8.472;2022-10-16T17:58:39;19.50;99.90